Aérodrome :
LOGIN :

S'inscrire | Disclaimer

   EN    FR    IT 

 










Légende :    VFR   VFR Marginal   IFR   IFR Intensif   IFR Très Intensif
Visi : 
Plafond : 
>= 8 km
>= 3000ft
5 à 8 km
1000 à 3000 ft
1500m à 5 km
500 à 1000 ft
800 à 1500m
200 à 500 ft
< 800m
< 200 ft
Symboles :   Orages  Brouillard  Fortes neiges  Fortes précipitations  Vent > 20 kt
SIGMETs :   Divers  Orages  Givrage  Turbulence  Onde Orograph.  Cendres Volcan.







- Altitude de l'aérodrome : 512 ft
- Code IATA : URO
- Voir les cartes d'approche


LFOP - Rouen Vallée de Seine

DERNIER METAR :
  • 240800Z AUTO 29007KT 270V340 9000 NSC 25/17 Q1014 NOSIG

METARs EXPIRÉS :
  • 240730Z AUTO 29007KT 250V320 CAVOK 24/17 Q1014 NOSIG
  • 240700Z AUTO 29007KT 270V330 CAVOK 24/17 Q1014 NOSIG
  • 240630Z AUTO 30006KT 260V330 CAVOK 23/16 Q1014 NOSIG
  • 240600Z AUTO 27005KT CAVOK 24/14 Q1014 NOSIG
  • 240530Z AUTO 27003KT CAVOK 23/14 Q1013 NOSIG

TAF TAF LFOP
Valide du 24 à 06h jusqu'au 25 à 06h UTC


240500Z 2406/2506 25008KT CAVOK
ATIS : +33 2 35 80 80 34
Météo : +33 2 32 86 52 80
Pas de NOTAMs connus pour ce terrain.



MET'MAP, la Météo Aéronautique d'un coup d'oeil ! - Copyright ORBIFLY Décembre 2007 - Disclaimer

ORBIFLY MET'MAP TEAM :

Programmation & Développement : Alexandra Zaïnal
Conception & Développement : Baudouin d'Aumeries
Co-Programmation & Développement : Marc-Olivier Méhu
Soutien technique & logistique : Manuel Goepfert

Contact : metmap@orbifly.com




SOURCES & CREDITS :

   NOAA